createdAt,value
2022-10-26T00:01:23.329Z,16.11
2022-10-26T00:03:54.594Z,16.09
2022-10-26T00:06:30.682Z,16.03
2022-10-26T00:09:00.255Z,15.98
2022-10-26T00:11:28.352Z,15.85
2022-10-26T00:13:56.490Z,15.80
2022-10-26T00:16:28.178Z,15.74
2022-10-26T00:18:56.385Z,15.69
2022-10-26T00:21:24.564Z,15.67
2022-10-26T00:23:52.703Z,15.67
2022-10-26T00:26:20.864Z,15.65
2022-10-26T00:28:49.131Z,15.48
2022-10-26T00:31:17.753Z,15.35
2022-10-26T00:33:45.972Z,15.36
2022-10-26T00:36:16.671Z,15.25
2022-10-26T00:38:53.194Z,15.15
2022-10-26T00:41:29.992Z,15.11
2022-10-26T00:43:59.095Z,15.16
2022-10-26T00:46:34.149Z,15.15
2022-10-26T00:49:30.057Z,15.08
2022-10-26T00:52:00.879Z,15.02
2022-10-26T00:54:29.097Z,14.93
2022-10-26T00:56:58.019Z,14.88
2022-10-26T00:59:26.442Z,14.86
2022-10-26T01:01:54.712Z,14.83
2022-10-26T01:04:22.926Z,14.80
2022-10-26T01:06:52.009Z,14.79
2022-10-26T01:09:22.104Z,14.84
2022-10-26T01:11:50.261Z,14.86
2022-10-26T01:14:20.627Z,14.93
2022-10-26T01:16:53.310Z,14.92
2022-10-26T01:19:39.593Z,14.91
2022-10-26T01:22:16.479Z,14.90
2022-10-26T01:25:07.329Z,14.89
2022-10-26T01:27:41.366Z,14.90
2022-10-26T01:30:15.165Z,14.92
2022-10-26T01:33:02.080Z,14.87
2022-10-26T01:35:50.715Z,14.94
2022-10-26T01:38:33.868Z,14.99
2022-10-26T01:41:28.450Z,14.99
2022-10-26T01:44:04.277Z,14.94
2022-10-26T01:46:38.430Z,14.90
2022-10-26T01:49:20.166Z,14.84
2022-10-26T01:51:50.506Z,14.75
2022-10-26T01:54:18.711Z,14.65
2022-10-26T01:56:51.845Z,14.64
2022-10-26T01:59:30.794Z,14.62
2022-10-26T02:02:13.573Z,14.62
2022-10-26T02:04:56.792Z,14.70
2022-10-26T02:07:42.822Z,14.71
2022-10-26T02:10:30.793Z,14.54
2022-10-26T02:13:14.676Z,14.43
2022-10-26T02:16:23.910Z,14.42
2022-10-26T02:19:30.705Z,14.44
2022-10-26T02:22:26.635Z,14.41
2022-10-26T02:24:56.027Z,14.48
2022-10-26T02:27:31.219Z,14.50
2022-10-26T02:30:01.263Z,14.48
2022-10-26T02:32:34.628Z,14.52
2022-10-26T02:35:03.727Z,14.60
2022-10-26T02:37:34.269Z,14.64
2022-10-26T02:40:07.521Z,14.65
2022-10-26T02:42:37.138Z,14.62
2022-10-26T02:45:11.045Z,14.61
2022-10-26T02:47:39.332Z,14.57
2022-10-26T02:50:07.874Z,14.45
2022-10-26T02:52:48.794Z,14.32
2022-10-26T02:55:24.215Z,14.27
2022-10-26T02:57:58.144Z,14.21
2022-10-26T03:00:26.484Z,14.18
2022-10-26T03:02:57.544Z,14.28
2022-10-26T03:05:28.665Z,14.31
2022-10-26T03:07:57.056Z,14.31
2022-10-26T03:10:25.866Z,14.27
2022-10-26T03:12:54.377Z,14.15
2022-10-26T03:15:22.639Z,14.10
2022-10-26T03:17:50.977Z,14.16
2022-10-26T03:20:19.334Z,14.28
2022-10-26T03:22:48.624Z,14.29
2022-10-26T03:25:16.924Z,14.30
2022-10-26T03:27:45.089Z,14.29
2022-10-26T03:30:13.467Z,14.22
2022-10-26T03:32:41.540Z,14.11
2022-10-26T03:35:09.803Z,14.11
2022-10-26T03:50:06.836Z,14.42
2022-10-26T03:52:35.210Z,14.27
2022-10-26T03:55:03.409Z,14.32
2022-10-26T03:57:31.580Z,14.46
2022-10-26T04:00:03.358Z,14.46
2022-10-26T04:02:39.870Z,14.49
2022-10-26T04:05:08.710Z,14.53
2022-10-26T04:07:36.954Z,14.60
2022-10-26T04:10:06.385Z,14.65
2022-10-26T04:12:38.156Z,14.64
2022-10-26T04:15:07.442Z,14.58
2022-10-26T04:17:35.811Z,14.60
2022-10-26T04:20:04.617Z,14.66
2022-10-26T04:22:32.752Z,14.69
2022-10-26T04:25:03.201Z,14.77
2022-10-26T04:27:31.366Z,14.83
2022-10-26T04:29:59.807Z,14.87
2022-10-26T04:32:27.995Z,14.94
2022-10-26T04:34:56.094Z,15.00
2022-10-26T04:37:24.216Z,14.96
2022-10-26T04:39:52.455Z,14.99
2022-10-26T04:42:20.705Z,15.07
2022-10-26T04:44:48.869Z,15.08
2022-10-26T04:47:16.994Z,15.09
2022-10-26T04:49:46.290Z,15.11
2022-10-26T04:52:14.461Z,15.22
2022-10-26T04:54:42.535Z,15.31
2022-10-26T04:57:11.340Z,15.38
2022-10-26T04:59:39.522Z,15.45
2022-10-26T05:02:07.802Z,15.48
2022-10-26T05:04:36.026Z,15.57
2022-10-26T05:07:04.118Z,15.47
2022-10-26T05:09:32.212Z,15.46
2022-10-26T05:12:00.337Z,15.38
2022-10-26T05:14:28.425Z,15.38
2022-10-26T05:16:57.898Z,15.36
2022-10-26T05:19:28.633Z,15.35
2022-10-26T05:21:56.826Z,15.33
2022-10-26T05:24:25.037Z,15.30
2022-10-26T05:26:53.295Z,15.34
2022-10-26T05:29:21.470Z,15.37
2022-10-26T05:31:49.571Z,15.42
2022-10-26T05:34:17.684Z,15.44
2022-10-26T05:36:45.866Z,15.43
2022-10-26T05:39:13.951Z,15.47
2022-10-26T05:41:42.970Z,15.48
2022-10-26T05:44:11.205Z,15.49
2022-10-26T05:46:39.358Z,15.50
2022-10-26T05:49:07.554Z,15.53
2022-10-26T05:51:37.227Z,15.49
2022-10-26T05:54:07.475Z,15.44
2022-10-26T05:56:39.907Z,15.19
2022-10-26T05:59:16.348Z,15.03
2022-10-26T06:02:15.583Z,15.01
2022-10-26T06:04:48.418Z,15.01
2022-10-26T06:07:20.056Z,14.97
2022-10-26T06:09:49.349Z,14.97
2022-10-26T06:12:19.619Z,15.00
2022-10-26T06:14:48.819Z,15.07
2022-10-26T06:17:34.736Z,15.10
2022-10-26T06:20:38.252Z,15.15
2022-10-26T06:23:34.156Z,15.26
2022-10-26T06:26:20.812Z,15.34
2022-10-26T06:29:06.785Z,15.47
2022-10-26T06:31:34.984Z,15.62
2022-10-26T06:34:03.905Z,15.73
2022-10-26T06:36:33.183Z,15.76
2022-10-26T06:39:05.880Z,15.78
2022-10-26T06:41:36.155Z,15.84
2022-10-26T06:44:05.886Z,15.92
2022-10-26T06:46:48.183Z,16.04
2022-10-26T06:49:34.989Z,16.09
2022-10-26T06:52:28.738Z,16.19
2022-10-26T06:54:57.444Z,16.27
2022-10-26T06:57:35.009Z,16.28
2022-10-26T07:00:09.194Z,16.32
2022-10-26T07:02:37.378Z,16.38
2022-10-26T07:05:06.258Z,16.53
2022-10-26T07:07:39.433Z,16.52
2022-10-26T07:10:07.904Z,16.57
2022-10-26T07:12:36.513Z,16.62
2022-10-26T07:15:05.956Z,16.77
2022-10-26T07:17:51.009Z,16.89
2022-10-26T07:20:21.306Z,17.03
2022-10-26T07:22:53.916Z,17.20
2022-10-26T07:25:22.705Z,17.45
2022-10-26T07:27:51.197Z,17.65
2022-10-26T07:30:19.582Z,17.77
2022-10-26T07:32:47.902Z,17.76
2022-10-26T07:35:16.354Z,17.80
2022-10-26T07:37:44.435Z,17.90
2022-10-26T07:40:12.599Z,18.14
2022-10-26T07:42:43.031Z,18.39
2022-10-26T07:45:13.770Z,18.54
2022-10-26T07:47:41.885Z,18.64
2022-10-26T07:50:11.980Z,18.77
2022-10-26T07:52:41.766Z,18.92
2022-10-26T07:55:13.288Z,18.97
2022-10-26T07:57:41.408Z,19.02
2022-10-26T08:00:11.178Z,19.13
2022-10-26T08:02:39.285Z,19.07
2022-10-26T08:05:08.007Z,19.12
2022-10-26T08:07:42.734Z,19.21
2022-10-26T08:10:12.969Z,19.22
2022-10-26T08:12:42.250Z,19.12
2022-10-26T08:15:12.393Z,19.16
2022-10-26T08:17:40.541Z,19.15
2022-10-26T08:20:09.305Z,19.18
2022-10-26T08:22:38.229Z,19.25
2022-10-26T08:25:06.720Z,19.31
2022-10-26T08:27:34.891Z,19.37
2022-10-26T08:30:03.093Z,19.48
2022-10-26T08:32:31.179Z,19.58
2022-10-26T08:34:59.244Z,19.71
2022-10-26T08:37:27.916Z,19.71
2022-10-26T08:39:57.545Z,19.80
2022-10-26T08:43:05.825Z,19.87
2022-10-26T08:45:38.833Z,19.83
2022-10-26T08:48:16.099Z,19.83
2022-10-26T08:50:51.202Z,19.72
2022-10-26T08:53:36.382Z,19.84
2022-10-26T08:56:15.909Z,20.04
2022-10-26T08:59:30.456Z,19.99
2022-10-26T09:01:58.921Z,19.99
2022-10-26T09:04:29.701Z,19.99
2022-10-26T09:07:10.814Z,20.30
2022-10-26T09:09:56.673Z,20.33
2022-10-26T09:12:32.121Z,20.27
2022-10-26T09:15:27.235Z,20.33
2022-10-26T09:18:19.134Z,20.38
2022-10-26T09:20:57.734Z,20.38
2022-10-26T09:23:37.774Z,20.29
2022-10-26T09:26:27.769Z,20.39
2022-10-26T09:28:58.048Z,20.54
2022-10-26T09:31:26.988Z,20.57
2022-10-26T09:33:56.626Z,20.56
2022-10-26T09:36:24.804Z,20.64
2022-10-26T09:39:39.737Z,20.65
2022-10-26T09:42:30.818Z,20.68
2022-10-26T09:45:11.071Z,20.70
2022-10-26T09:47:43.019Z,20.66
2022-10-26T09:50:28.426Z,20.77
2022-10-26T09:52:56.682Z,20.89
2022-10-26T09:55:26.673Z,20.86
2022-10-26T09:57:59.401Z,20.91
2022-10-26T10:00:29.564Z,20.96
2022-10-26T10:03:02.136Z,20.90
2022-10-26T10:05:52.517Z,20.92
2022-10-26T10:08:24.330Z,21.00
2022-10-26T10:10:59.276Z,20.99
2022-10-26T10:13:33.249Z,20.98
2022-10-26T10:16:19.156Z,21.12
2022-10-26T10:18:55.935Z,21.20
2022-10-26T10:21:39.585Z,21.12
2022-10-26T10:24:26.167Z,21.04
2022-10-26T10:27:12.745Z,21.02
2022-10-26T10:29:46.217Z,21.01
2022-10-26T10:32:22.658Z,21.05
2022-10-26T10:34:56.117Z,21.16
2022-10-26T10:37:45.991Z,21.17
2022-10-26T10:40:22.287Z,21.29
2022-10-26T10:42:53.599Z,21.29
2022-10-26T10:45:29.308Z,-145.56
2022-10-26T10:48:05.631Z,-145.56
2022-10-26T10:50:36.435Z,21.29
2022-10-26T10:53:36.356Z,21.98
2022-10-26T10:56:11.639Z,22.02
2022-10-26T10:59:11.049Z,22.13
2022-10-26T11:01:48.758Z,22.22
2022-10-26T11:04:26.230Z,22.36
2022-10-26T11:07:00.756Z,22.40
2022-10-26T11:09:33.514Z,22.51
2022-10-26T11:12:12.113Z,-145.56
2022-10-26T11:14:47.650Z,-145.56
2022-10-26T11:17:27.779Z,-145.56
2022-10-26T11:20:04.771Z,-145.56
2022-10-26T11:22:40.263Z,-145.56
2022-10-26T11:25:19.409Z,-145.56
2022-10-26T11:27:58.425Z,-145.56
2022-10-26T11:30:30.436Z,-145.56
2022-10-26T11:33:14.435Z,-145.56
2022-10-26T11:35:57.921Z,-145.56
2022-10-26T11:38:56.021Z,-145.56
2022-10-26T11:41:50.090Z,-145.56
2022-10-26T11:44:34.874Z,-145.56
2022-10-26T11:47:34.795Z,-145.56
2022-10-26T11:50:11.150Z,-145.56
2022-10-26T11:52:45.791Z,-145.56
2022-10-26T11:55:13.985Z,-145.56
2022-10-26T11:57:42.343Z,-145.56
2022-10-26T12:00:21.782Z,-145.56
2022-10-26T12:03:12.000Z,-145.56
2022-10-26T12:05:52.886Z,-145.56
2022-10-26T12:08:37.358Z,-145.56
2022-10-26T12:11:09.642Z,-145.56
2022-10-26T12:14:00.028Z,-145.56
2022-10-26T12:16:34.101Z,-145.56
2022-10-26T12:19:09.657Z,-145.56
2022-10-26T12:21:37.901Z,-145.56
2022-10-26T12:24:29.777Z,-145.56
2022-10-26T12:27:03.405Z,-145.56
2022-10-26T12:29:47.520Z,-145.56
2022-10-26T12:32:34.134Z,-145.56
2022-10-26T12:35:22.226Z,-145.56
2022-10-26T12:37:50.644Z,-145.56
2022-10-26T12:40:38.585Z,-145.56
2022-10-26T12:43:18.252Z,-145.56
2022-10-26T12:46:06.326Z,-145.56
2022-10-26T12:48:44.351Z,-145.56
2022-10-26T12:51:27.122Z,-145.56
2022-10-26T12:53:58.112Z,-145.56
2022-10-26T12:56:36.488Z,-145.56
2022-10-26T12:59:19.985Z,-145.56
2022-10-26T13:02:10.445Z,-145.56
2022-10-26T13:05:07.823Z,-145.56
2022-10-26T13:07:40.742Z,-145.56
2022-10-26T13:10:14.750Z,-145.56
2022-10-26T13:12:55.360Z,-145.56
2022-10-26T13:15:29.531Z,-145.56
2022-10-26T13:17:59.879Z,-145.56
2022-10-26T13:20:30.704Z,-145.56
2022-10-26T13:22:59.141Z,-145.56
2022-10-26T13:25:32.061Z,-145.56
2022-10-26T13:28:02.317Z,-145.56
2022-10-26T13:30:44.709Z,-145.56
2022-10-26T13:33:20.863Z,-145.56
2022-10-26T13:35:52.412Z,-145.56
2022-10-26T13:38:24.374Z,-145.56
2022-10-26T13:41:00.279Z,-145.56
2022-10-26T13:43:28.772Z,-145.56
2022-10-26T13:46:01.394Z,-145.56
2022-10-26T13:48:42.573Z,-145.56
2022-10-26T13:51:31.378Z,-145.56
2022-10-26T13:54:07.376Z,-145.56
2022-10-26T13:56:42.869Z,-145.56
2022-10-26T13:59:15.628Z,-145.56
2022-10-26T14:02:05.136Z,-145.56
2022-10-26T14:04:33.328Z,-145.56
2022-10-26T14:07:01.601Z,-145.56
2022-10-26T14:09:30.799Z,-145.56
2022-10-26T14:12:01.892Z,-145.56
2022-10-26T14:14:36.435Z,-145.56
2022-10-26T14:17:05.666Z,-145.56
2022-10-26T14:19:36.710Z,-145.56
2022-10-26T14:22:05.387Z,-145.56
2022-10-26T14:24:52.879Z,-145.56
2022-10-26T14:27:24.234Z,-145.56
2022-10-26T14:30:20.406Z,-145.56
2022-10-26T14:32:42.728Z,-145.56
2022-10-26T14:35:17.165Z,-145.56
2022-10-26T14:37:54.332Z,-145.56
2022-10-26T14:40:27.128Z,-145.56
2022-10-26T14:43:00.347Z,-145.56
2022-10-26T14:48:31.340Z,-145.56
2022-10-26T14:51:11.430Z,-145.56
2022-10-26T14:53:49.878Z,-145.56
2022-10-26T14:56:41.149Z,-145.56
2022-10-26T14:59:32.454Z,-145.56
2022-10-26T15:02:19.642Z,-145.56
2022-10-26T15:05:02.664Z,-145.56
2022-10-26T15:07:39.733Z,-145.56
2022-10-26T15:10:37.092Z,-145.56
2022-10-26T15:13:28.084Z,-145.56
2022-10-26T15:16:07.611Z,-145.56
2022-10-26T15:18:38.480Z,-145.56
2022-10-26T15:21:36.941Z,-145.56
2022-10-26T15:24:20.428Z,-145.56
2022-10-26T15:26:48.918Z,-145.56
2022-10-26T15:29:38.596Z,-145.56
2022-10-26T15:32:23.223Z,-145.56
2022-10-26T15:35:11.312Z,-145.56
2022-10-26T15:37:40.217Z,-145.56
2022-10-26T15:40:08.900Z,-145.56
2022-10-26T15:42:40.164Z,-145.56
2022-10-26T15:45:18.763Z,-145.56
2022-10-26T15:47:47.381Z,-145.56
2022-10-26T15:50:17.875Z,-145.56
2022-10-26T15:52:49.058Z,-145.56
2022-10-26T15:55:23.885Z,-145.56
2022-10-26T15:57:52.518Z,-145.56
2022-10-26T16:00:20.976Z,-145.56
2022-10-26T16:02:49.241Z,-145.56
2022-10-26T16:05:17.524Z,-145.56
2022-10-26T16:07:47.993Z,-145.56
2022-10-26T16:10:26.005Z,-145.56
2022-10-26T16:12:54.735Z,-145.56
2022-10-26T16:15:24.922Z,-145.56
2022-10-26T16:17:53.494Z,-145.56
2022-10-26T16:20:24.940Z,-145.56
2022-10-26T16:22:56.197Z,-145.56
2022-10-26T16:25:25.880Z,-145.56
2022-10-26T16:27:55.311Z,-145.56
2022-10-26T16:30:25.907Z,-145.56
2022-10-26T16:32:56.589Z,-145.56
2022-10-26T16:35:24.808Z,-145.56
2022-10-26T16:37:52.936Z,-145.56
2022-10-26T16:40:21.195Z,-145.56
2022-10-26T16:42:49.587Z,-145.56
2022-10-26T16:45:17.963Z,-145.56
2022-10-26T16:47:46.158Z,-145.56
2022-10-26T16:50:14.768Z,-145.56
2022-10-26T16:52:43.190Z,-145.56
2022-10-26T16:55:14.845Z,-145.56
2022-10-26T16:57:43.392Z,-145.56
2022-10-26T17:00:12.436Z,-145.56
2022-10-26T17:02:41.791Z,-145.56
2022-10-26T17:05:10.387Z,-145.56
2022-10-26T17:07:38.498Z,-145.56
2022-10-26T17:10:07.287Z,-145.56
2022-10-26T17:12:37.322Z,-145.56
2022-10-26T17:15:05.937Z,-145.56
2022-10-26T17:17:36.690Z,-145.56
2022-10-26T17:20:06.129Z,-145.56
2022-10-26T17:22:34.728Z,-145.56
2022-10-26T17:25:03.466Z,-145.56
2022-10-26T17:27:31.869Z,-145.56
2022-10-26T17:30:01.899Z,-145.56
2022-10-26T17:32:31.681Z,-145.56
2022-10-26T17:35:02.062Z,-145.56
2022-10-26T17:37:31.376Z,-145.56
2022-10-26T17:40:00.215Z,-145.56
2022-10-26T17:42:28.681Z,-145.56
2022-10-26T17:44:56.839Z,-145.56
2022-10-26T17:47:25.079Z,-145.56
2022-10-26T17:49:53.231Z,-145.56
2022-10-26T17:52:24.642Z,-145.56
2022-10-26T17:54:52.793Z,-145.56
2022-10-26T17:57:20.912Z,-145.56
2022-10-26T17:59:49.095Z,-145.56
2022-10-26T18:02:17.272Z,-145.56
2022-10-26T18:04:45.890Z,-145.56
2022-10-26T18:07:14.109Z,-145.56
2022-10-26T18:09:42.356Z,-145.56
2022-10-26T18:12:10.822Z,-145.56
2022-10-26T18:14:38.949Z,-145.56
2022-10-26T18:17:07.209Z,-145.56
2022-10-26T18:19:35.310Z,-145.56
2022-10-26T18:22:03.473Z,-145.56
2022-10-26T18:24:31.603Z,-145.56
2022-10-26T18:26:59.817Z,-145.56
2022-10-26T18:29:30.788Z,-145.56
2022-10-26T18:31:58.972Z,-145.56
2022-10-26T18:34:27.117Z,-145.56
2022-10-26T18:36:55.593Z,-145.56
2022-10-26T18:39:23.799Z,-145.56
2022-10-26T18:41:52.004Z,-145.56
2022-10-26T18:44:20.210Z,-145.56
2022-10-26T18:46:51.908Z,-145.56
2022-10-26T18:49:20.624Z,-145.56
2022-10-26T18:51:48.799Z,-145.56
2022-10-26T18:54:17.228Z,-145.56
2022-10-26T18:56:45.455Z,-145.56
2022-10-26T18:59:13.548Z,-145.56
2022-10-26T19:01:42.282Z,-145.56
2022-10-26T19:04:11.207Z,-145.56
2022-10-26T19:06:43.155Z,-145.56
2022-10-26T19:09:11.318Z,-145.56
2022-10-26T19:11:39.570Z,-145.56
2022-10-26T19:14:08.956Z,-145.56
2022-10-26T19:16:45.805Z,-145.56
2022-10-26T19:19:17.216Z,-145.56
2022-10-26T19:21:49.692Z,-145.56
2022-10-26T19:24:20.663Z,-145.56
2022-10-26T19:26:54.099Z,-145.56
2022-10-26T19:29:22.287Z,-145.56
2022-10-26T19:31:55.695Z,-145.56
2022-10-26T19:34:23.945Z,-145.56
2022-10-26T19:36:52.473Z,-145.56
2022-10-26T19:39:21.132Z,-145.56
2022-10-26T19:41:49.868Z,-145.56
2022-10-26T19:44:23.132Z,-145.56
2022-10-26T19:46:53.552Z,-145.56
2022-10-26T19:49:22.390Z,-145.56
2022-10-26T19:51:51.042Z,-145.56
2022-10-26T19:54:19.838Z,-145.56
2022-10-26T19:56:48.477Z,-145.56
2022-10-26T19:59:16.809Z,-145.56
2022-10-26T20:01:45.503Z,-145.56
2022-10-26T20:04:14.384Z,-145.56
2022-10-26T20:06:43.215Z,-145.56
2022-10-26T20:09:12.112Z,-145.56
2022-10-26T20:11:43.013Z,-145.56
2022-10-26T20:14:14.043Z,-145.56
2022-10-26T20:16:42.368Z,-145.56
2022-10-26T20:19:12.431Z,-145.56
2022-10-26T20:21:42.669Z,-145.56
2022-10-26T20:24:11.397Z,-145.56
2022-10-26T20:26:40.129Z,-145.56
2022-10-26T20:29:08.352Z,-145.56
2022-10-26T20:31:36.923Z,-145.56
2022-10-26T20:34:05.674Z,-145.56
2022-10-26T20:36:33.969Z,-145.56
2022-10-26T20:39:05.525Z,-145.56
2022-10-26T20:41:36.585Z,-145.56
2022-10-26T20:44:05.013Z,-145.56
2022-10-26T20:46:33.375Z,-145.56
2022-10-26T20:49:01.806Z,-145.56
2022-10-26T20:51:44.517Z,-145.56
2022-10-26T20:54:25.964Z,-145.56
2022-10-26T20:56:56.990Z,-145.56
2022-10-26T20:59:29.435Z,-145.56
2022-10-26T21:01:57.583Z,-145.56
2022-10-26T21:04:25.730Z,-145.56
2022-10-26T21:06:53.841Z,-145.56
2022-10-26T21:09:23.511Z,-145.56
2022-10-26T21:11:53.225Z,-145.56
2022-10-26T21:14:21.460Z,-145.56
2022-10-26T21:16:49.823Z,-145.56
2022-10-26T21:19:19.323Z,-145.56
2022-10-26T21:21:47.453Z,-145.56
2022-10-26T21:24:15.709Z,-145.56
2022-10-26T21:26:43.925Z,-145.56
2022-10-26T21:29:12.215Z,-145.56
2022-10-26T21:31:40.443Z,-145.56
2022-10-26T21:34:11.402Z,-145.56
2022-10-26T21:36:42.637Z,-145.56
2022-10-26T21:39:11.054Z,-145.56
2022-10-26T21:41:39.240Z,-145.56
2022-10-26T21:44:23.225Z,-145.56
2022-10-26T21:46:58.393Z,-145.56
2022-10-26T21:49:27.393Z,-145.56
2022-10-26T21:51:55.589Z,-145.56
2022-10-26T21:54:23.805Z,-145.56
2022-10-26T21:56:51.904Z,-145.56
2022-10-26T21:59:20.105Z,-145.56
2022-10-26T22:01:48.755Z,-145.56
2022-10-26T22:04:17.097Z,-145.56
2022-10-26T22:06:45.293Z,-145.56
2022-10-26T22:09:13.494Z,-145.56
2022-10-26T22:11:44.535Z,-145.56
2022-10-26T22:14:15.444Z,-145.56
2022-10-26T22:16:43.667Z,-145.56
2022-10-26T22:19:11.887Z,-145.56
2022-10-26T22:21:41.734Z,-145.56
2022-10-26T22:24:11.293Z,-145.56
2022-10-26T22:26:39.513Z,-145.56
2022-10-26T22:29:07.756Z,-145.56
2022-10-26T22:31:39.212Z,-145.56
2022-10-26T22:34:13.688Z,-145.56
2022-10-26T22:36:42.063Z,-145.56
2022-10-26T22:39:10.285Z,-145.56
2022-10-26T22:41:38.416Z,-145.56
2022-10-26T22:44:06.720Z,-145.56
2022-10-26T22:46:34.860Z,-145.56
2022-10-26T22:49:03.321Z,-145.56
2022-10-26T22:51:34.053Z,-145.56
2022-10-26T22:54:04.121Z,-145.56
2022-10-26T22:56:33.604Z,-145.56
2022-10-26T22:59:01.755Z,-145.56
2022-10-26T23:01:37.564Z,-145.56
2022-10-26T23:04:05.954Z,-145.56
2022-10-26T23:06:34.503Z,-145.56
2022-10-26T23:09:03.549Z,-145.56
2022-10-26T23:11:32.066Z,-145.56
2022-10-26T23:14:02.424Z,-145.56
2022-10-26T23:16:31.447Z,-145.56
2022-10-26T23:19:00.126Z,-145.56
2022-10-26T23:21:29.586Z,-145.56
2022-10-26T23:23:58.355Z,-145.56
2022-10-26T23:26:26.814Z,-145.56
2022-10-26T23:28:55.071Z,-145.56
2022-10-26T23:31:25.722Z,-145.56
2022-10-26T23:33:55.952Z,-145.56
2022-10-26T23:36:24.721Z,-145.56
2022-10-26T23:38:52.992Z,-145.56
2022-10-26T23:41:21.217Z,-145.56
2022-10-26T23:43:49.395Z,-145.56
2022-10-26T23:46:17.642Z,-145.56
2022-10-26T23:48:45.881Z,-145.56
2022-10-26T23:51:14.048Z,-145.56
2022-10-26T23:53:42.248Z,-145.56
2022-10-26T23:56:10.333Z,-145.56
2022-10-26T23:58:38.522Z,-145.56
